Atlantic Aquarius — VRDX6 — position and weather

sailwx.info

Track history (hours):
 
Tides and Currents Weather Stations Pressure Air Temp Water Temp Dewpoint Dewpoint Depression Visibility Wind Speed Wind Dir Waves Ship Positions

Atlantic Aquarius

Last reported at 2015-Apr-23 21:12 UTC. Time now 2015-May-03 21:56 UTC.
Position S 30°20' E 030°58'.
Warning: this ship's position is 10 days out of date.

Length 183 m; draft 7.2 m.

Type: Tanker. MMSI: 477071400.

Date/timePositionNaut miles runAvg speedWind from/ knotsBaromVisibWave heightAir tempDewpointWater temp
2015-Apr-23 21:12S 30°20' E 030°58'913.3
2015-Apr-23 20:33S 30°12' E 031°02'1313.2
2015-Apr-23 19:33S 29°60' E 031°09'9 9.4
2015-Apr-23 18:33S 29°51' E 031°04'4 0.9
2015-Apr-23 14:16S 29°53' E 031°00'0 0.0
2015-Apr-23 13:10S 29°53' E 031°00'0 0.0
2015-Apr-23 11:28S 29°53' E 031°00'0 0.0
2015-Apr-23 04:28S 29°53' E 031°00'0 0.0
2015-Apr-23 03:28S 29°53' E 031°00'0 0.0
2015-Apr-23 02:28S 29°53' E 031°00'0 0.0
2015-Apr-23 00:28S 29°53' E 031°00'0 0.0
2015-Apr-22 23:28S 29°53' E 031°00'0 0.0
2015-Apr-22 22:28S 29°53' E 031°00'0 0.0
2015-Apr-22 21:22S 29°53' E 031°00'0 0.0
2015-Apr-21 23:04S 29°53' E 031°00'0 0.0
2015-Apr-21 20:04S 29°53' E 031°00'0 0.0
2015-Apr-21 14:05S 29°53' E 031°00'0 0.0
2015-Apr-20 20:05S 29°53' E 031°00'0 0.0
2015-Apr-20 17:05S 29°53' E 031°00'0 0.0
2015-Apr-20 14:05S 29°53' E 031°00'0 0.0
2015-Apr-20 13:23S 29°53' E 031°00'0 0.0
2015-Apr-20 12:29S 29°53' E 031°00'0 0.0
2015-Apr-20 11:29S 29°53' E 031°00'0 0.0
2015-Apr-20 10:05S 29°53' E 031°00'0 0.0
2015-Apr-20 07:23S 29°53' E 031°00'0 0.0
2015-Apr-20 06:05S 29°53' E 031°00'0 0.0
2015-Apr-20 04:17S 29°53' E 031°00'0 0.0
2015-Apr-20 03:24S 29°53' E 031°00'0 0.0
2015-Apr-20 02:23S 29°53' E 031°00'0 0.0
2015-Apr-20 01:29S 29°53' E 031°00'0 0.0
2015-Apr-20 00:29S 29°53' E 031°00'0 0.0
2015-Apr-19 23:29S 29°53' E 031°00'0 0.0
2015-Apr-19 22:23S 29°53' E 031°00'0 0.0
2015-Apr-19 21:17S 29°53' E 031°00'0 0.0
2015-Apr-19 20:05S 29°53' E 031°00'0 0.0
2015-Apr-19 15:29S 29°53' E 031°00'0 0.0
2015-Apr-18 08:23S 29°53' E 031°00'0 0.0
2015-Apr-18 03:17S 29°53' E 031°00'0 0.0
2015-Apr-18 02:29S 29°53' E 031°00'0 0.0
2015-Apr-18 01:23S 29°53' E 031°00'0 0.0
2015-Apr-18 00:29S 29°53' E 031°00'0 0.0
2015-Apr-17 23:11S 29°53' E 031°00'0 0.0
2015-Apr-17 22:23S 29°53' E 031°00'0 0.0
2015-Apr-17 21:29S 29°53' E 031°00'0 0.0
2015-Apr-17 14:11S 29°53' E 031°00'0 0.0
2015-Apr-17 13:17S 29°53' E 031°00'0 0.0
2015-Apr-17 01:29S 29°53' E 031°00'0 0.0
2015-Apr-17 00:11S 29°53' E 031°00'0 0.0
2015-Apr-16 23:29S 29°53' E 031°00'0 0.0
2015-Apr-16 22:29S 29°53' E 031°00'0 0.0
2015-Apr-16 21:05S 29°53' E 031°00'0 0.0
2015-Apr-16 20:29S 29°53' E 031°00'0 0.0
2015-Apr-16 19:23S 29°53' E 031°00'0 0.0
2015-Apr-16 18:29S 29°53' E 031°00'0 0.0
2015-Apr-16 17:23S 29°53' E 031°00'0 0.0
2015-Apr-16 14:23S 29°53' E 031°00'0 0.0
2015-Apr-16 07:17S 29°53' E 031°00'0 0.0
2015-Apr-16 06:17S 29°53' E 031°00'0 0.0
2015-Apr-16 04:23S 29°53' E 031°00'0 0.0
2015-Apr-16 03:17S 29°53' E 031°00'0 0.0
2015-Apr-16 02:17S 29°53' E 031°00'0 0.0
2015-Apr-15 22:33S 29°53' E 031°00'3 3.2
2015-Apr-15 21:33S 29°52' E 031°04'5 5.0
2015-Apr-15 20:33S 29°49' E 031°09'3 3.1
2015-Apr-15 19:32S 29°48' E 031°12'5 4.5
2015-Apr-15 18:32S 29°46' E 031°17'1 1.2
2015-Apr-15 17:33S 29°47' E 031°18'1 1.5
2015-Apr-15 16:32S 29°48' E 031°17'1 1.5
2015-Apr-15 15:33S 29°49' E 031°16'3 2.8
2015-Apr-15 14:33S 29°51' E 031°14'5 2.0
2015-Apr-15 12:15S 29°51' E 031°09'2 3.1
2015-Apr-15 11:33S 29°50' E 031°11'4 4.1
2015-Apr-15 10:33S 29°47' E 031°15'2 1.8
2015-Apr-15 09:33S 29°49' E 031°14'5 4.6
2015-Apr-15 08:33S 29°53' E 031°11'2 2.3
2015-Apr-15 07:33S 29°50' E 031°10'3 2.9
2015-Apr-15 06:32S 29°48' E 031°13'3 3.0
2015-Apr-15 05:33S 29°47' E 031°15'2 2.1
2015-Apr-15 04:33S 29°45' E 031°17'3 3.5
2015-Apr-15 03:33S 29°42' E 031°17'6 4.6
2015-Apr-15 02:20S 29°39' E 031°12'0 0.0
2015-Apr-15 01:21S 29°39' E 031°12'0 0.0
2015-Apr-15 00:14S 29°39' E 031°12'0 0.0
2015-Apr-14 23:26S 29°39' E 031°12'0 0.0
2015-Apr-14 22:32S 29°39' E 031°12'0 0.0
2015-Apr-14 20:26S 29°39' E 031°12'0 0.0
2015-Apr-14 19:32S 29°39' E 031°12'0 0.3
2015-Apr-14 18:32S 29°39' E 031°12'4 4.1
2015-Apr-14 17:33S 29°42' E 031°15'7 7.2
2015-Apr-14 16:33S 29°49' E 031°12'9 9.0
2015-Apr-14 15:33S 29°46' E 031°21'1110.7
2015-Apr-14 14:33S 29°42' E 031°33'1312.6
2015-Apr-14 13:33S 29°35' E 031°45'1514.1
2015-Apr-14 12:30S 29°29' E 032°00'4514.0
2015-Apr-14 09:19S 29°07' E 032°45'  
Track history (hours):
 
Tides and Currents Weather Stations Pressure Air Temp Water Temp Dewpoint Dewpoint Depression Visibility Wind Speed Wind Dir Waves Ship Positions

Atlantic Aquarius

Last reported at 2015-Apr-23 21:12 UTC. Time now 2015-May-03 21:56 UTC.
Position S 30°20' E 030°58'.
Warning: this ship's position is 10 days out of date.

Length 183 m; draft 7.2 m.

Type: Tanker. MMSI: 477071400.

Date/timePositionNaut miles runAvg speedWind from/ knotsBaromVisibWave heightAir tempDewpointWater temp
2015-Apr-23 21:12S 30°20' E 030°58'913.3
2015-Apr-23 20:33S 30°12' E 031°02'1313.2
2015-Apr-23 19:33S 29°60' E 031°09'9 9.4
2015-Apr-23 18:33S 29°51' E 031°04'4 0.9
2015-Apr-23 14:16S 29°53' E 031°00'0 0.0
2015-Apr-23 13:10S 29°53' E 031°00'0 0.0
2015-Apr-23 11:28S 29°53' E 031°00'0 0.0
2015-Apr-23 04:28S 29°53' E 031°00'0 0.0
2015-Apr-23 03:28S 29°53' E 031°00'0 0.0
2015-Apr-23 02:28S 29°53' E 031°00'0 0.0
2015-Apr-23 00:28S 29°53' E 031°00'0 0.0
2015-Apr-22 23:28S 29°53' E 031°00'0 0.0
2015-Apr-22 22:28S 29°53' E 031°00'0 0.0
2015-Apr-22 21:22S 29°53' E 031°00'0 0.0
2015-Apr-21 23:04S 29°53' E 031°00'0 0.0
2015-Apr-21 20:04S 29°53' E 031°00'0 0.0
2015-Apr-21 14:05S 29°53' E 031°00'0 0.0
2015-Apr-20 20:05S 29°53' E 031°00'0 0.0
2015-Apr-20 17:05S 29°53' E 031°00'0 0.0
2015-Apr-20 14:05S 29°53' E 031°00'0 0.0
2015-Apr-20 13:23S 29°53' E 031°00'0 0.0
2015-Apr-20 12:29S 29°53' E 031°00'0 0.0
2015-Apr-20 11:29S 29°53' E 031°00'0 0.0
2015-Apr-20 10:05S 29°53' E 031°00'0 0.0
2015-Apr-20 07:23S 29°53' E 031°00'0 0.0
2015-Apr-20 06:05S 29°53' E 031°00'0 0.0
2015-Apr-20 04:17S 29°53' E 031°00'0 0.0
2015-Apr-20 03:24S 29°53' E 031°00'0 0.0
2015-Apr-20 02:23S 29°53' E 031°00'0 0.0
2015-Apr-20 01:29S 29°53' E 031°00'0 0.0
2015-Apr-20 00:29S 29°53' E 031°00'0 0.0
2015-Apr-19 23:29S 29°53' E 031°00'0 0.0
2015-Apr-19 22:23S 29°53' E 031°00'0 0.0
2015-Apr-19 21:17S 29°53' E 031°00'0 0.0
2015-Apr-19 20:05S 29°53' E 031°00'0 0.0
2015-Apr-19 15:29S 29°53' E 031°00'0 0.0
2015-Apr-18 08:23S 29°53' E 031°00'0 0.0
2015-Apr-18 03:17S 29°53' E 031°00'0 0.0
2015-Apr-18 02:29S 29°53' E 031°00'0 0.0
2015-Apr-18 01:23S 29°53' E 031°00'0 0.0
2015-Apr-18 00:29S 29°53' E 031°00'0 0.0
2015-Apr-17 23:11S 29°53' E 031°00'0 0.0
2015-Apr-17 22:23S 29°53' E 031°00'0 0.0
2015-Apr-17 21:29S 29°53' E 031°00'0 0.0
2015-Apr-17 14:11S 29°53' E 031°00'0 0.0
2015-Apr-17 13:17S 29°53' E 031°00'0 0.0
2015-Apr-17 01:29S 29°53' E 031°00'0 0.0
2015-Apr-17 00:11S 29°53' E 031°00'0 0.0
2015-Apr-16 23:29S 29°53' E 031°00'0 0.0
2015-Apr-16 22:29S 29°53' E 031°00'0 0.0
2015-Apr-16 21:05S 29°53' E 031°00'0 0.0
2015-Apr-16 20:29S 29°53' E 031°00'0 0.0
2015-Apr-16 19:23S 29°53' E 031°00'0 0.0
2015-Apr-16 18:29S 29°53' E 031°00'0 0.0
2015-Apr-16 17:23S 29°53' E 031°00'0 0.0
2015-Apr-16 14:23S 29°53' E 031°00'0 0.0
2015-Apr-16 07:17S 29°53' E 031°00'0 0.0
2015-Apr-16 06:17S 29°53' E 031°00'0 0.0
2015-Apr-16 04:23S 29°53' E 031°00'0 0.0
2015-Apr-16 03:17S 29°53' E 031°00'0 0.0
2015-Apr-16 02:17S 29°53' E 031°00'0 0.0
2015-Apr-15 22:33S 29°53' E 031°00'3 3.2
2015-Apr-15 21:33S 29°52' E 031°04'5 5.0
2015-Apr-15 20:33S 29°49' E 031°09'3 3.1
2015-Apr-15 19:32S 29°48' E 031°12'5 4.5
2015-Apr-15 18:32S 29°46' E 031°17'1 1.2
2015-Apr-15 17:33S 29°47' E 031°18'1 1.5
2015-Apr-15 16:32S 29°48' E 031°17'1 1.5
2015-Apr-15 15:33S 29°49' E 031°16'3 2.8
2015-Apr-15 14:33S 29°51' E 031°14'5 2.0
2015-Apr-15 12:15S 29°51' E 031°09'2 3.1
2015-Apr-15 11:33S 29°50' E 031°11'4 4.1
2015-Apr-15 10:33S 29°47' E 031°15'2 1.8
2015-Apr-15 09:33S 29°49' E 031°14'5 4.6
2015-Apr-15 08:33S 29°53' E 031°11'2 2.3
2015-Apr-15 07:33S 29°50' E 031°10'3 2.9
2015-Apr-15 06:32S 29°48' E 031°13'3 3.0
2015-Apr-15 05:33S 29°47' E 031°15'2 2.1
2015-Apr-15 04:33S 29°45' E 031°17'3 3.5
2015-Apr-15 03:33S 29°42' E 031°17'6 4.6
2015-Apr-15 02:20S 29°39' E 031°12'0 0.0
2015-Apr-15 01:21S 29°39' E 031°12'0 0.0
2015-Apr-15 00:14S 29°39' E 031°12'0 0.0
2015-Apr-14 23:26S 29°39' E 031°12'0 0.0
2015-Apr-14 22:32S 29°39' E 031°12'0 0.0
2015-Apr-14 20:26S 29°39' E 031°12'0 0.0
2015-Apr-14 19:32S 29°39' E 031°12'0 0.3
2015-Apr-14 18:32S 29°39' E 031°12'4 4.1
2015-Apr-14 17:33S 29°42' E 031°15'7 7.2
2015-Apr-14 16:33S 29°49' E 031°12'9 9.0
2015-Apr-14 15:33S 29°46' E 031°21'1110.7
2015-Apr-14 14:33S 29°42' E 031°33'1312.6
2015-Apr-14 13:33S 29°35' E 031°45'1514.1
2015-Apr-14 12:30S 29°29' E 032°00'4514.0
2015-Apr-14 09:19S 29°07' E 032°45'  

Dump ship's entire track history